This is the latest recevied weather packets stored in our database for station/object SR8NGO-1. If no packets are shown the sender has not sent any weather packets the latest 10 day(s).
| Time | Temp. | Humidity | Pressure | Rain* | Wind** | Luminosity | Snow |
|---|---|---|---|---|---|---|---|
| 1777287875 | 16.11° C | 70% | 1009 hPa | 137.92 mm | - | - | - |
| 1777287635 | 13.89° C | 65% | 1009 hPa | 137.92 mm | - | - | - |
| 1777287395 | 15° C | 73% | 1009 hPa | 137.92 mm | - | - | - |
| 1777287155 | 15° C | 71% | 1009 hPa | 137.92 mm | - | - | - |
| 1777286915 | 15° C | 72% | 1009 hPa | 137.92 mm | - | - | - |
| 1777286675 | 15° C | 71% | 1009 hPa | 137.92 mm | - | - | - |
| 1777286435 | 15° C | 71% | 1009 hPa | 137.92 mm | - | - | - |
| 1777286195 | 15° C | 71% | 1009 hPa | 137.92 mm | - | - | - |
| 1777285955 | 15° C | 76% | 1009.1 hPa | 137.92 mm | - | - | - |
| 1777285715 | 15° C | 75% | 1009.1 hPa | 137.92 mm | - | - | - |
| 1777285475 | 15° C | 67% | 1009.2 hPa | 137.92 mm | - | - | - |
| 1777285235 | 13.89° C | 74% | 1009.1 hPa | 137.92 mm | - | - | - |
| 1777284995 | 15° C | 75% | 1009.2 hPa | 137.92 mm | - | - | - |
| 1777284755 | 15° C | 73% | 1009.3 hPa | 137.92 mm | - | - | - |
| 1777284515 | 13.89° C | 71% | 1009.3 hPa | 137.92 mm | - | - | - |
| 1777284275 | 13.89° C | 69% | 1009.4 hPa | 137.92 mm | - | - | - |
| 1777284036 | 13.89° C | 67% | 1009.5 hPa | 137.92 mm | - | - | - |
| 1777283795 | 15° C | 71% | 1009.4 hPa | 137.92 mm | - | - | - |
| 1777283555 | 15° C | 73% | 1009.6 hPa | 137.92 mm | - | - | - |
| 1777283315 | 13.89° C | 68% | 1009.6 hPa | 137.92 mm | - | - | - |
| 1777283075 | 15° C | 72% | 1009.6 hPa | 137.92 mm | - | - | - |
| 1777282835 | 13.89° C | 73% | 1009.7 hPa | 137.92 mm | - | - | - |
| 1777282595 | 13.89° C | 72% | 1009.7 hPa | 137.92 mm | - | - | - |
| 1777282355 | 12.78° C | 65% | 1009.7 hPa | 137.92 mm | - | - | - |
| 1777282115 | 15° C | 71% | 1009.8 hPa | 137.92 mm | - | - | - |
* Rain latest hour (hover to see other rain measurements)
** Current wind speed in m/s (hover to see current wind gust speed)